Air Navigation Services of Czech Republic
Airport: LKCV Updated:  20.01.2017 20:06:05  UTC
 METAR LKCV 20.01. 20:00 ...
METAR LKCV 202000Z 20001KT 3000 BR NSC M09/M10 Q1034 NOSIG=
 TAF LKCV 20.01. 17:00 ...
TAF LKCV 201700Z 2018/2118 VRB02KT 3000 BR SCT030      PROB30 TEMPO 2020/2108 0600 FZFG BKN003=